createdAt,value
2022-10-26T00:01:06.422Z,89.26
2022-10-26T00:03:34.403Z,87.52
2022-10-26T00:06:10.364Z,86.49
2022-10-26T00:08:37.636Z,88.33
2022-10-26T00:11:04.595Z,89.65
2022-10-26T00:13:31.193Z,90.13
2022-10-26T00:15:58.113Z,90.43
2022-10-26T00:18:24.867Z,90.83
2022-10-26T00:20:51.663Z,91.51
2022-10-26T00:23:18.556Z,92.38
2022-10-26T00:25:45.399Z,92.72
2022-10-26T00:28:12.017Z,93.16
2022-10-26T00:30:39.929Z,92.15
2022-10-26T00:33:06.508Z,92.57
2022-10-26T00:35:45.554Z,92.39
2022-10-26T00:38:13.273Z,91.27
2022-10-26T00:40:39.961Z,88.71
2022-10-26T00:43:14.904Z,89.04
2022-10-26T00:45:43.770Z,87.69
2022-10-26T00:48:21.853Z,86.54
2022-10-26T00:50:48.925Z,87.02
2022-10-26T00:53:16.072Z,87.70
2022-10-26T00:55:47.213Z,86.72
2022-10-26T00:58:14.558Z,85.41
2022-10-26T01:00:42.824Z,86.94
2022-10-26T01:03:11.159Z,87.75
2022-10-26T01:05:42.261Z,88.11
2022-10-26T01:08:09.599Z,88.85
2022-10-26T01:10:39.643Z,90.03
2022-10-26T01:13:06.570Z,90.28
2022-10-26T01:16:03.746Z,90.24
2022-10-26T01:19:05.678Z,89.58
2022-10-26T01:21:45.849Z,89.83
2022-10-26T01:24:34.210Z,89.52
2022-10-26T01:27:38.405Z,89.81
2022-10-26T01:30:18.846Z,89.74
2022-10-26T01:32:45.437Z,90.22
2022-10-26T01:35:35.545Z,90.03
2022-10-26T01:38:16.892Z,92.02
2022-10-26T01:40:51.149Z,90.88
2022-10-26T01:43:20.445Z,90.87
2022-10-26T01:45:48.747Z,90.03
2022-10-26T01:48:19.317Z,91.85
2022-10-26T01:50:50.081Z,91.67
2022-10-26T01:53:17.337Z,91.30
2022-10-26T01:55:52.656Z,92.58
2022-10-26T01:58:40.501Z,92.13
2022-10-26T02:01:29.801Z,91.64
2022-10-26T02:04:08.386Z,90.75
2022-10-26T02:07:13.106Z,90.75
2022-10-26T02:09:54.898Z,88.97
2022-10-26T02:12:38.927Z,88.29
2022-10-26T02:15:11.443Z,87.77
2022-10-26T02:17:42.879Z,85.14
2022-10-26T02:20:15.548Z,85.85
2022-10-26T02:22:47.356Z,86.98
2022-10-26T02:25:44.708Z,85.83
2022-10-26T02:28:16.402Z,84.23
2022-10-26T02:30:46.572Z,85.01
2022-10-26T02:33:15.175Z,85.61
2022-10-26T02:35:45.636Z,84.92
2022-10-26T02:38:13.482Z,84.25
2022-10-26T02:40:41.127Z,85.54
2022-10-26T02:43:15.909Z,87.20
2022-10-26T02:45:50.070Z,87.76
2022-10-26T02:48:16.689Z,87.71
2022-10-26T02:51:01.304Z,87.24
2022-10-26T02:53:38.778Z,87.34
2022-10-26T02:56:16.499Z,87.25
2022-10-26T02:58:49.632Z,88.84
2022-10-26T03:01:16.491Z,88.72
2022-10-26T03:03:43.350Z,88.58
2022-10-26T03:06:10.007Z,90.66
2022-10-26T03:08:39.721Z,90.41
2022-10-26T03:11:09.388Z,91.67
2022-10-26T03:13:38.151Z,90.19
2022-10-26T03:16:04.809Z,89.91
2022-10-26T03:18:31.382Z,88.98
2022-10-26T03:20:58.097Z,90.18
2022-10-26T03:23:24.687Z,90.48
2022-10-26T03:25:51.229Z,91.47
2022-10-26T03:28:17.782Z,90.67
2022-10-26T03:30:44.375Z,90.87
2022-10-26T03:33:10.951Z,90.55
2022-10-26T03:35:40.576Z,89.92
2022-10-26T03:38:12.856Z,90.15
2022-10-26T03:40:41.650Z,88.71
2022-10-26T03:43:08.824Z,88.49
2022-10-26T03:45:35.504Z,88.42
2022-10-26T03:48:02.064Z,88.92
2022-10-26T03:50:28.664Z,88.32
2022-10-26T03:52:55.238Z,88.62
2022-10-26T03:55:21.836Z,88.63
2022-10-26T03:57:48.487Z,89.25
2022-10-26T04:00:17.706Z,88.32
2022-10-26T04:02:48.794Z,87.57
2022-10-26T04:05:16.766Z,87.83
2022-10-26T04:07:43.649Z,88.21
2022-10-26T04:10:10.695Z,89.36
2022-10-26T04:12:41.003Z,90.10
2022-10-26T04:15:07.958Z,89.48
2022-10-26T04:17:34.629Z,89.75
2022-10-26T04:20:01.236Z,88.65
2022-10-26T04:22:27.873Z,89.98
2022-10-26T04:24:54.524Z,90.97
2022-10-26T04:27:23.495Z,89.56
2022-10-26T04:29:50.039Z,91.38
2022-10-26T04:32:16.634Z,92.43
2022-10-26T04:34:43.226Z,93.08
2022-10-26T04:37:11.977Z,92.55
2022-10-26T04:39:38.632Z,93.29
2022-10-26T04:42:05.361Z,94.40
2022-10-26T04:44:32.790Z,95.52
2022-10-26T04:46:59.337Z,95.64
2022-10-26T04:49:25.883Z,94.46
2022-10-26T04:51:52.505Z,93.72
2022-10-26T04:54:19.290Z,94.73
2022-10-26T04:59:16.776Z,91.30
2022-10-26T05:01:46.932Z,89.84
2022-10-26T05:04:14.297Z,91.00
2022-10-26T05:06:42.792Z,93.24
2022-10-26T05:09:10.014Z,94.68
2022-10-26T05:11:36.953Z,96.55
2022-10-26T05:14:03.671Z,96.18
2022-10-26T05:16:30.528Z,96.48
2022-10-26T05:18:57.439Z,97.45
2022-10-26T05:21:24.223Z,99.56
2022-10-26T05:23:53.935Z,98.58
2022-10-26T05:26:21.418Z,99.87
2022-10-26T05:28:48.579Z,100.00
2022-10-26T05:31:15.699Z,100.00
2022-10-26T05:33:48.879Z,100.00
2022-10-26T05:36:15.762Z,100.00
2022-10-26T05:38:45.670Z,100.00
2022-10-26T05:41:18.223Z,100.00
2022-10-26T05:43:47.632Z,100.00
2022-10-26T05:46:14.966Z,100.00
2022-10-26T05:48:46.316Z,100.00
2022-10-26T05:51:16.726Z,100.00
2022-10-26T05:53:47.404Z,99.99
2022-10-26T05:56:20.486Z,98.03
2022-10-26T05:58:48.182Z,97.11
2022-10-26T06:01:30.337Z,97.89
2022-10-26T06:04:08.035Z,100.00
2022-10-26T06:06:39.933Z,99.55
2022-10-26T06:09:06.821Z,98.49
2022-10-26T06:11:33.648Z,98.19
2022-10-26T06:14:01.264Z,96.36
2022-10-26T06:16:48.272Z,96.29
2022-10-26T06:19:23.564Z,96.30
2022-10-26T06:21:50.061Z,96.26
2022-10-26T06:24:27.549Z,96.48
2022-10-26T06:26:54.009Z,98.80
2022-10-26T06:29:32.299Z,97.91
2022-10-26T06:31:58.856Z,99.19
2022-10-26T06:34:33.492Z,100.00
2022-10-26T06:37:01.214Z,100.00
2022-10-26T06:39:38.134Z,100.00
2022-10-26T06:42:05.090Z,100.00
2022-10-26T06:44:32.146Z,100.00
2022-10-26T06:47:27.168Z,99.85
2022-10-26T06:50:18.240Z,99.07
2022-10-26T06:53:12.003Z,97.92
2022-10-26T06:55:50.814Z,94.87
2022-10-26T06:58:24.011Z,95.62
2022-10-26T07:00:53.793Z,98.14
2022-10-26T07:03:20.720Z,99.81
2022-10-26T07:05:50.834Z,99.32
2022-10-26T07:08:19.469Z,96.20
2022-10-26T07:10:49.213Z,95.93
2022-10-26T07:13:17.580Z,91.85
2022-10-26T07:15:47.251Z,87.73
2022-10-26T07:18:13.787Z,80.58
2022-10-26T07:20:41.967Z,77.93
2022-10-26T07:23:11.477Z,73.91
2022-10-26T07:25:40.673Z,73.11
2022-10-26T07:28:10.497Z,71.48
2022-10-26T07:30:39.052Z,69.93
2022-10-26T07:33:09.375Z,70.40
2022-10-26T07:35:36.029Z,71.15
2022-10-26T07:38:04.463Z,69.24
2022-10-26T07:40:31.096Z,68.37
2022-10-26T07:42:59.265Z,65.61
2022-10-26T07:45:26.962Z,64.58
2022-10-26T07:47:53.533Z,64.33
2022-10-26T07:50:20.227Z,62.94
2022-10-26T07:52:50.703Z,61.74
2022-10-26T07:55:21.087Z,60.68
2022-10-26T07:57:52.523Z,60.15
2022-10-26T08:00:21.969Z,59.63
2022-10-26T08:02:49.268Z,60.03
2022-10-26T08:05:18.233Z,61.43
2022-10-26T08:07:51.720Z,62.86
2022-10-26T08:10:21.319Z,62.78
2022-10-26T08:12:49.073Z,63.28
2022-10-26T08:15:15.707Z,62.56
2022-10-26T08:17:43.463Z,62.74
2022-10-26T08:20:11.125Z,62.55
2022-10-26T08:22:38.603Z,62.90
2022-10-26T08:25:05.653Z,62.19
2022-10-26T08:27:32.375Z,61.37
2022-10-26T08:29:58.905Z,62.23
2022-10-26T08:32:25.501Z,63.41
2022-10-26T08:34:52.106Z,63.60
2022-10-26T08:37:22.831Z,64.15
2022-10-26T08:39:52.156Z,65.00
2022-10-26T08:42:32.873Z,64.27
2022-10-26T08:45:03.803Z,62.82
2022-10-26T08:47:36.035Z,60.57
2022-10-26T08:50:13.542Z,59.90
2022-10-26T08:53:06.909Z,60.63
2022-10-26T08:58:22.526Z,56.33
2022-10-26T09:00:51.363Z,55.58
2022-10-26T09:03:21.038Z,55.60
2022-10-26T09:06:04.467Z,52.61
2022-10-26T09:08:39.448Z,51.74
2022-10-26T09:11:30.737Z,50.42
2022-10-26T09:14:06.002Z,49.17
2022-10-26T09:16:36.816Z,49.11
2022-10-26T09:19:21.393Z,47.79
2022-10-26T09:21:58.564Z,48.70
2022-10-26T09:24:39.572Z,48.89
2022-10-26T09:27:27.502Z,49.73
2022-10-26T09:29:56.558Z,51.13
2022-10-26T09:32:41.283Z,51.10
2022-10-26T09:35:26.145Z,49.03
2022-10-26T09:38:05.562Z,47.10
2022-10-26T09:41:20.428Z,46.99
2022-10-26T09:44:00.925Z,48.53
2022-10-26T09:46:33.672Z,48.50
2022-10-26T09:49:06.505Z,48.83
2022-10-26T09:51:42.609Z,46.78
2022-10-26T09:54:21.895Z,47.97
2022-10-26T09:56:54.297Z,49.38
2022-10-26T09:59:24.913Z,50.03
2022-10-26T10:01:51.873Z,48.93
2022-10-26T10:04:23.055Z,47.54
2022-10-26T10:07:03.346Z,46.29
2022-10-26T10:09:29.907Z,46.04
2022-10-26T10:11:59.623Z,43.08
2022-10-26T10:14:37.367Z,46.55
2022-10-26T10:17:19.449Z,44.70
2022-10-26T10:19:48.220Z,44.28
2022-10-26T10:22:14.657Z,45.18
2022-10-26T10:24:43.547Z,44.04
2022-10-26T10:27:12.706Z,45.32
2022-10-26T10:29:50.791Z,45.24
2022-10-26T10:32:21.032Z,45.64
2022-10-26T10:34:51.764Z,44.18
2022-10-26T10:37:24.276Z,43.30
2022-10-26T10:39:51.086Z,44.42
2022-10-26T10:42:23.609Z,42.38
2022-10-26T10:44:53.074Z,43.63
2022-10-26T10:50:14.486Z,40.47
2022-10-26T10:52:42.063Z,40.64
2022-10-26T10:55:14.563Z,40.15
2022-10-26T10:57:59.290Z,40.53
2022-10-26T11:00:26.173Z,39.92
2022-10-26T11:03:24.858Z,40.54
2022-10-26T11:06:09.401Z,42.54
2022-10-26T11:09:19.715Z,42.12
2022-10-26T11:11:52.538Z,41.95
2022-10-26T11:14:50.262Z,39.80
2022-10-26T11:17:29.166Z,39.07
2022-10-26T11:20:12.560Z,38.86
2022-10-26T11:22:58.859Z,37.67
2022-10-26T11:25:30.181Z,38.02
2022-10-26T11:28:04.968Z,38.86
2022-10-26T11:30:34.645Z,39.99
2022-10-26T11:33:06.806Z,39.23
2022-10-26T11:35:43.882Z,41.92
2022-10-26T11:38:46.171Z,41.08
2022-10-26T11:41:48.824Z,41.49
2022-10-26T11:44:29.465Z,39.16
2022-10-26T11:47:02.710Z,39.01
2022-10-26T11:49:45.318Z,37.03
2022-10-26T11:52:36.594Z,36.95
2022-10-26T11:55:04.888Z,35.94
2022-10-26T11:57:36.992Z,36.32
2022-10-26T12:00:08.493Z,35.90
2022-10-26T12:05:15.383Z,35.25
2022-10-26T12:07:50.482Z,36.74
2022-10-26T12:10:32.481Z,37.37
2022-10-26T12:13:09.787Z,39.14
2022-10-26T12:16:02.328Z,38.28
2022-10-26T12:18:56.584Z,37.93
2022-10-26T12:21:30.050Z,39.16
2022-10-26T12:24:02.477Z,38.85
2022-10-26T12:26:30.123Z,37.53
2022-10-26T12:29:02.928Z,36.98
2022-10-26T12:31:32.316Z,37.65
2022-10-26T12:34:00.083Z,38.28
2022-10-26T12:36:57.545Z,38.69
2022-10-26T12:39:29.816Z,37.61
2022-10-26T12:42:10.190Z,38.42
2022-10-26T12:45:00.966Z,36.30
2022-10-26T12:47:30.306Z,37.24
2022-10-26T12:50:06.118Z,36.72
2022-10-26T12:52:54.759Z,36.03
2022-10-26T12:55:51.394Z,36.43
2022-10-26T12:58:42.907Z,37.34
2022-10-26T13:01:29.848Z,36.48
2022-10-26T13:04:02.388Z,37.00
2022-10-26T13:06:37.545Z,36.57
2022-10-26T13:09:21.073Z,37.33
2022-10-26T13:11:55.578Z,37.29
2022-10-26T13:14:25.602Z,38.32
2022-10-26T13:16:52.841Z,38.88
2022-10-26T13:19:36.485Z,38.41
2022-10-26T13:22:03.173Z,38.58
2022-10-26T13:24:32.681Z,39.47
2022-10-26T13:27:08.975Z,40.63
2022-10-26T13:30:05.612Z,40.81
2022-10-26T13:32:49.808Z,39.06
2022-10-26T13:35:20.425Z,38.10
2022-10-26T13:37:50.520Z,38.86
2022-10-26T13:40:26.960Z,39.26
2022-10-26T13:42:56.957Z,39.56
2022-10-26T13:45:30.437Z,40.02
2022-10-26T13:48:18.801Z,39.26
2022-10-26T13:53:45.608Z,36.54
2022-10-26T13:56:26.278Z,35.51
2022-10-26T13:59:00.843Z,36.73
2022-10-26T14:01:28.783Z,37.58
2022-10-26T14:03:56.023Z,36.77
2022-10-26T14:06:33.999Z,36.17
2022-10-26T14:09:04.788Z,35.59
2022-10-26T14:11:35.871Z,37.16
2022-10-26T14:14:04.148Z,35.86
2022-10-26T14:16:34.352Z,36.47
2022-10-26T14:19:01.228Z,36.34
2022-10-26T14:21:27.977Z,35.37
2022-10-26T14:23:58.183Z,35.23
2022-10-26T14:26:50.904Z,37.43
2022-10-26T14:29:20.620Z,38.26
2022-10-26T14:31:51.695Z,38.62
2022-10-26T14:34:23.139Z,38.22
2022-10-26T14:37:03.064Z,36.67
2022-10-26T14:39:40.610Z,36.38
2022-10-26T14:42:29.085Z,38.49
2022-10-26T14:44:57.265Z,37.48
2022-10-26T14:47:35.567Z,39.09
2022-10-26T14:50:04.468Z,39.89
2022-10-26T14:52:36.022Z,40.46
2022-10-26T14:55:10.762Z,41.53
2022-10-26T14:57:41.822Z,39.79
2022-10-26T15:00:23.804Z,41.34
2022-10-26T15:02:54.907Z,42.78
2022-10-26T15:05:24.424Z,41.88
2022-10-26T15:07:52.765Z,41.96
2022-10-26T15:10:41.011Z,42.10
2022-10-26T15:13:20.478Z,41.74
2022-10-26T15:15:49.960Z,42.15
2022-10-26T15:18:27.793Z,42.14
2022-10-26T15:20:55.998Z,43.50
2022-10-26T15:23:24.232Z,44.49
2022-10-26T15:26:13.060Z,46.14
2022-10-26T15:28:44.312Z,47.63
2022-10-26T15:31:13.081Z,48.91
2022-10-26T15:33:52.643Z,49.75
2022-10-26T15:36:21.662Z,49.52
2022-10-26T15:38:50.028Z,50.51
2022-10-26T15:41:31.143Z,50.90
2022-10-26T15:44:01.601Z,51.64
2022-10-26T15:46:33.182Z,52.26
2022-10-26T15:49:05.065Z,52.70
2022-10-26T15:51:31.818Z,54.78
2022-10-26T15:53:59.408Z,55.10
2022-10-26T15:56:26.730Z,56.40
2022-10-26T15:58:54.897Z,56.47
2022-10-26T16:01:26.973Z,56.34
2022-10-26T16:03:53.688Z,57.55
2022-10-26T16:06:30.948Z,58.83
2022-10-26T16:09:00.537Z,59.73
2022-10-26T16:11:27.438Z,59.72
2022-10-26T16:13:56.072Z,59.68
2022-10-26T16:16:25.558Z,59.98
2022-10-26T16:19:06.112Z,59.79
2022-10-26T16:21:41.887Z,59.96
2022-10-26T16:24:09.828Z,60.86
2022-10-26T16:26:36.461Z,60.76
2022-10-26T16:29:03.300Z,61.42
2022-10-26T16:31:29.839Z,61.42
2022-10-26T16:34:00.191Z,61.91
2022-10-26T16:36:29.868Z,63.97
2022-10-26T16:38:56.516Z,63.95
2022-10-26T16:41:23.112Z,64.08
2022-10-26T16:43:49.658Z,64.71
2022-10-26T16:46:22.962Z,65.07
2022-10-26T16:48:50.299Z,65.33
2022-10-26T16:51:19.688Z,66.08
2022-10-26T16:53:48.150Z,66.50
2022-10-26T16:56:18.157Z,66.96
2022-10-26T16:58:44.862Z,67.05
2022-10-26T17:01:18.120Z,67.32
2022-10-26T17:03:48.316Z,67.05
2022-10-26T17:06:15.040Z,67.39
2022-10-26T17:08:42.128Z,68.13
2022-10-26T17:11:11.835Z,68.94
2022-10-26T17:13:40.225Z,69.68
2022-10-26T17:16:16.039Z,70.09
2022-10-26T17:18:43.908Z,69.67
2022-10-26T17:21:12.796Z,70.17
2022-10-26T17:23:39.477Z,70.39
2022-10-26T17:26:08.674Z,69.90
2022-10-26T17:28:35.849Z,69.75
2022-10-26T17:31:07.845Z,70.26
2022-10-26T17:33:36.292Z,70.85
2022-10-26T17:36:05.325Z,70.38
2022-10-26T17:38:37.911Z,71.28
2022-10-26T17:41:10.547Z,72.09
2022-10-26T17:43:39.280Z,73.18
2022-10-26T17:46:32.379Z,74.11
2022-10-26T17:49:00.302Z,75.16
2022-10-26T17:51:29.176Z,75.67
2022-10-26T17:54:00.458Z,76.00
2022-10-26T17:56:30.552Z,75.84
2022-10-26T17:59:00.680Z,76.27
2022-10-26T18:01:32.191Z,76.97
2022-10-26T18:03:59.228Z,77.32
2022-10-26T18:06:29.516Z,77.78
2022-10-26T18:08:58.201Z,77.84
2022-10-26T18:11:27.706Z,78.08
2022-10-26T18:13:57.950Z,80.09
2022-10-26T18:16:31.246Z,79.44
2022-10-26T18:19:05.077Z,78.51
2022-10-26T18:21:34.946Z,78.36
2022-10-26T18:24:01.896Z,80.23
2022-10-26T18:26:31.711Z,79.84
2022-10-26T18:29:02.194Z,79.22
2022-10-26T18:31:30.817Z,79.24
2022-10-26T18:34:02.944Z,79.46
2022-10-26T18:36:33.437Z,80.03
2022-10-26T18:39:00.684Z,81.73
2022-10-26T18:41:30.708Z,81.15
2022-10-26T18:43:59.915Z,80.24
2022-10-26T18:46:30.176Z,82.08
2022-10-26T18:49:01.328Z,82.00
2022-10-26T18:51:34.370Z,82.46
2022-10-26T18:54:01.573Z,82.88
2022-10-26T18:56:55.742Z,84.32
2022-10-26T18:59:22.345Z,84.11
2022-10-26T19:01:49.873Z,83.82
2022-10-26T19:04:16.659Z,84.70
2022-10-26T19:06:47.372Z,85.83
2022-10-26T19:09:18.742Z,87.21
2022-10-26T19:11:45.890Z,86.08
2022-10-26T19:14:14.843Z,85.22
2022-10-26T19:16:46.931Z,86.30
2022-10-26T19:19:15.510Z,87.58
2022-10-26T19:21:42.254Z,87.58
2022-10-26T19:24:19.911Z,87.75
2022-10-26T19:26:47.251Z,88.11
2022-10-26T19:29:16.568Z,88.64
2022-10-26T19:31:48.309Z,88.61
2022-10-26T19:34:16.236Z,90.18
2022-10-26T19:37:06.179Z,89.25
2022-10-26T19:39:32.768Z,89.69
2022-10-26T19:42:01.455Z,89.46
2022-10-26T19:44:27.989Z,89.87
2022-10-26T19:46:54.558Z,90.09
2022-10-26T19:49:21.216Z,90.32
2022-10-26T19:51:48.398Z,89.86
2022-10-26T19:54:15.015Z,90.18
2022-10-26T19:56:41.574Z,90.20
2022-10-26T19:59:11.012Z,88.25
2022-10-26T20:01:37.698Z,87.39
2022-10-26T20:04:05.042Z,87.58
2022-10-26T20:06:34.343Z,88.34
2022-10-26T20:09:04.385Z,90.00
2022-10-26T20:11:36.535Z,92.18
2022-10-26T20:14:06.755Z,92.43
2022-10-26T20:16:33.329Z,93.91
2022-10-26T20:19:02.941Z,95.40
2022-10-26T20:21:35.334Z,94.15
2022-10-26T20:24:04.658Z,92.28
2022-10-26T20:26:33.340Z,92.46
2022-10-26T20:29:03.867Z,94.47
2022-10-26T20:31:33.283Z,95.55
2022-10-26T20:34:01.359Z,96.84
2022-10-26T20:36:27.922Z,98.39
2022-10-26T20:38:54.764Z,100.00
2022-10-26T20:41:21.705Z,100.00
2022-10-26T20:43:51.355Z,100.00
2022-10-26T20:46:25.782Z,98.95
2022-10-26T20:48:54.147Z,98.90
2022-10-26T20:51:57.035Z,98.40
2022-10-26T20:55:03.937Z,98.56
2022-10-26T20:57:35.059Z,98.74
2022-10-26T21:00:10.357Z,99.06
2022-10-26T21:02:36.990Z,99.87
2022-10-26T21:05:04.302Z,100.00
2022-10-26T21:07:33.242Z,99.51
2022-10-26T21:09:59.791Z,98.67
2022-10-26T21:12:26.404Z,96.58
2022-10-26T21:14:52.954Z,95.44
2022-10-26T21:17:19.487Z,96.72
2022-10-26T21:19:46.039Z,96.92
2022-10-26T21:22:12.693Z,96.41
2022-10-26T21:24:39.274Z,94.21
2022-10-26T21:27:05.827Z,93.38
2022-10-26T21:29:34.736Z,96.65
2022-10-26T21:32:01.447Z,98.27
2022-10-26T21:34:27.973Z,97.40
2022-10-26T21:36:54.506Z,98.08
2022-10-26T21:39:21.082Z,95.73
2022-10-26T21:41:47.681Z,94.37
2022-10-26T21:44:34.061Z,95.12
2022-10-26T21:47:00.806Z,95.02
2022-10-26T21:49:27.435Z,91.67
2022-10-26T21:51:53.971Z,92.94
2022-10-26T21:54:20.515Z,99.03
2022-10-26T21:56:47.047Z,100.00
2022-10-26T21:59:13.600Z,100.00
2022-10-26T22:01:40.593Z,100.00
2022-10-26T22:04:07.270Z,100.00
2022-10-26T22:06:36.929Z,100.00
2022-10-26T22:09:03.717Z,100.00
2022-10-26T22:11:31.454Z,98.94
2022-10-26T22:13:57.966Z,96.92
2022-10-26T22:16:30.394Z,99.72
2022-10-26T22:18:59.160Z,99.05
2022-10-26T22:21:27.303Z,95.49
2022-10-26T22:23:54.163Z,95.94
2022-10-26T22:26:25.207Z,97.30
2022-10-26T22:28:54.047Z,99.62
2022-10-26T22:31:23.552Z,100.00
2022-10-26T22:33:55.357Z,100.00
2022-10-26T22:36:22.564Z,100.00
2022-10-26T22:38:50.312Z,100.00
2022-10-26T22:41:17.921Z,99.32
2022-10-26T22:43:44.471Z,99.74
2022-10-26T22:46:16.341Z,99.74
2022-10-26T22:48:45.398Z,98.10
2022-10-26T22:51:18.571Z,100.00
2022-10-26T22:53:45.872Z,98.21
2022-10-26T22:56:14.248Z,100.00
2022-10-26T22:58:40.886Z,99.85
2022-10-26T23:01:13.236Z,99.94
2022-10-26T23:03:43.325Z,100.00
2022-10-26T23:06:15.295Z,96.29
2022-10-26T23:08:41.975Z,95.29
2022-10-26T23:11:12.065Z,95.67
2022-10-26T23:13:42.420Z,97.65
2022-10-26T23:16:18.072Z,98.37
2022-10-26T23:18:44.611Z,100.00
2022-10-26T23:21:15.341Z,100.00
2022-10-26T23:23:42.068Z,100.00
2022-10-26T23:26:13.547Z,96.75
2022-10-26T23:28:43.807Z,94.67
2022-10-26T23:31:23.085Z,94.50
2022-10-26T23:33:51.286Z,96.04
2022-10-26T23:36:18.518Z,98.71
2022-10-26T23:38:45.568Z,99.42
2022-10-26T23:41:15.181Z,99.66
2022-10-26T23:43:42.383Z,100.00
2022-10-26T23:46:09.461Z,99.97
2022-10-26T23:48:37.088Z,97.74
2022-10-26T23:51:03.729Z,96.44
2022-10-26T23:53:30.231Z,98.64
2022-10-26T23:55:56.736Z,98.09
2022-10-26T23:58:23.251Z,99.69
